createdAt,value
2023-05-12T00:00:44.685Z,92666.91
2023-05-12T00:03:48.196Z,92670.22
2023-05-12T00:06:51.263Z,92679.53
2023-05-12T00:09:54.371Z,92657.53
2023-05-12T00:12:58.049Z,92639.69
2023-05-12T00:16:01.243Z,92642.16
2023-05-12T00:19:04.564Z,92638.81
2023-05-12T00:22:07.757Z,92631.81
2023-05-12T00:25:10.908Z,92627.13
2023-05-12T00:28:14.062Z,92626.72
2023-05-12T00:31:17.385Z,92624.50
2023-05-12T00:34:20.556Z,92624.75
2023-05-12T00:37:23.686Z,92616.06
2023-05-12T00:40:26.915Z,92614.75
2023-05-12T00:43:30.381Z,92622.38
2023-05-12T00:46:33.808Z,92616.03
2023-05-12T00:49:37.509Z,92621.47
2023-05-12T00:52:40.971Z,92617.81
2023-05-12T00:55:45.059Z,92606.81
2023-05-12T00:58:48.767Z,92608.78
2023-05-12T01:04:55.578Z,92597.78
2023-05-12T01:08:01.796Z,92585.25
2023-05-12T01:11:05.263Z,92592.16
2023-05-12T01:14:08.771Z,92583.47
2023-05-12T01:17:15.009Z,92580.75
2023-05-12T01:20:20.026Z,92583.78
2023-05-12T01:23:30.258Z,92580.63
2023-05-12T01:26:34.068Z,92574.31
2023-05-12T01:29:38.623Z,92579.47
2023-05-12T01:32:42.759Z,92579.66
2023-05-12T01:35:46.129Z,92571.09
2023-05-12T01:38:49.489Z,92577.75
2023-05-12T01:41:52.630Z,92574.84
2023-05-12T01:44:56.297Z,92562.44
2023-05-12T01:47:59.889Z,92567.34
2023-05-12T01:51:03.344Z,92562.81
2023-05-12T01:54:06.624Z,92551.00
2023-05-12T01:57:13.721Z,92548.78
2023-05-12T02:00:17.430Z,92555.41
2023-05-12T02:03:23.591Z,92551.44
2023-05-12T02:06:27.973Z,92539.34
2023-05-12T02:09:31.949Z,92546.56
2023-05-12T02:12:37.772Z,92543.47
2023-05-12T02:15:40.954Z,92554.06
2023-05-12T02:18:44.275Z,92550.94
2023-05-12T02:21:47.628Z,92537.97
2023-05-12T02:24:51.106Z,92529.72
2023-05-12T02:27:54.837Z,92539.53
2023-05-12T02:30:59.338Z,92541.06
2023-05-12T02:34:06.492Z,92531.56
2023-05-12T02:37:10.082Z,92531.16
2023-05-12T02:40:13.643Z,92528.66
2023-05-12T02:43:16.983Z,92523.38
2023-05-12T02:46:20.690Z,92511.59
2023-05-12T02:49:24.018Z,92523.72
2023-05-12T02:52:27.340Z,92513.47
2023-05-12T02:55:30.897Z,92511.81
2023-05-12T02:58:34.234Z,92514.28
2023-05-12T03:01:37.472Z,92513.44
2023-05-12T03:04:41.065Z,92510.94
2023-05-12T03:07:44.380Z,92491.88
2023-05-12T03:10:47.700Z,92496.25
2023-05-12T03:13:51.082Z,92491.72
2023-05-12T03:16:54.301Z,92490.56
2023-05-12T03:19:57.547Z,92488.22
2023-05-12T03:23:00.830Z,92484.13
2023-05-12T03:26:04.679Z,92465.28
2023-05-12T03:29:08.536Z,92470.53
2023-05-12T03:32:11.787Z,92462.88
2023-05-12T03:35:15.908Z,92468.25
2023-05-12T03:38:19.707Z,92465.28
2023-05-12T03:41:23.677Z,92460.81
2023-05-12T03:44:26.999Z,92453.31
2023-05-12T03:47:30.316Z,92451.81
2023-05-12T03:50:33.722Z,92444.31
2023-05-12T03:53:36.936Z,92436.88
2023-05-12T03:56:40.137Z,92436.88
2023-05-12T03:59:44.432Z,92431.03
2023-05-12T04:02:48.923Z,92425.69
2023-05-12T04:05:52.203Z,92426.94
2023-05-12T04:08:55.644Z,92418.25
2023-05-12T04:11:59.506Z,92420.84
2023-05-12T04:15:03.048Z,92421.19
2023-05-12T04:18:06.242Z,92428.94
2023-05-12T04:21:09.466Z,92406.41
2023-05-12T04:24:12.736Z,92403.94
2023-05-12T04:27:16.105Z,92406.94
2023-05-12T04:30:20.420Z,92392.31
2023-05-12T04:33:25.237Z,92390.72
2023-05-12T04:36:28.851Z,92382.22
2023-05-12T04:39:32.143Z,92374.19
2023-05-12T04:42:36.029Z,92368.34
2023-05-12T04:45:39.684Z,92370.97
2023-05-12T04:48:44.242Z,92370.50
2023-05-12T04:51:47.564Z,92369.25
2023-05-12T04:54:50.927Z,92365.41
2023-05-12T04:57:54.220Z,92362.44
2023-05-12T05:00:58.057Z,92353.38
2023-05-12T05:04:01.316Z,92350.53
2023-05-12T05:07:04.896Z,92349.38
2023-05-12T05:10:09.603Z,92342.13
2023-05-12T05:13:13.263Z,92341.16
2023-05-12T05:16:17.038Z,92336.84
2023-05-12T05:19:31.812Z,92337.84
2023-05-12T05:22:44.017Z,92339.03
2023-05-12T05:25:47.836Z,92329.25
2023-05-12T05:28:51.192Z,92319.03
2023-05-12T05:31:54.582Z,92307.16
2023-05-12T05:34:58.107Z,92309.53
2023-05-12T05:38:01.262Z,92315.34
2023-05-12T05:41:05.902Z,92301.31
2023-05-12T05:44:09.126Z,92301.75
2023-05-12T05:47:12.372Z,92312.13
2023-05-12T05:50:15.554Z,92306.25
2023-05-12T05:53:19.649Z,92303.00
2023-05-12T05:56:23.726Z,92286.94
2023-05-12T05:59:27.430Z,92282.16
2023-05-12T06:02:30.759Z,92281.72
2023-05-12T06:05:36.793Z,92278.56
2023-05-12T06:08:40.184Z,92285.41
2023-05-12T06:11:43.367Z,92273.50
2023-05-12T06:14:46.531Z,92271.06
2023-05-12T06:17:50.814Z,92255.81
2023-05-12T06:20:54.122Z,92248.03
2023-05-12T06:23:57.470Z,92251.03
2023-05-12T06:27:00.617Z,92239.34
2023-05-12T06:30:04.900Z,92248.59
2023-05-12T06:33:08.095Z,92242.13
2023-05-12T06:36:11.491Z,92246.78
2023-05-12T06:39:14.690Z,92227.03
2023-05-12T06:42:19.600Z,92232.75
2023-05-12T06:45:27.183Z,92238.72
2023-05-12T06:48:30.289Z,92235.22
2023-05-12T06:51:34.654Z,92225.13
2023-05-12T06:54:38.070Z,92228.31
2023-05-12T06:57:42.154Z,92236.47
2023-05-12T07:00:45.291Z,92224.91
2023-05-12T07:03:48.565Z,92217.25
2023-05-12T07:06:52.808Z,92219.25
2023-05-12T07:09:55.968Z,92205.56
2023-05-12T07:12:59.169Z,92200.56
2023-05-12T07:16:03.221Z,92207.78
2023-05-12T07:19:09.537Z,92204.22
2023-05-12T07:22:13.455Z,92187.63
2023-05-12T07:25:16.768Z,92193.44
2023-05-12T07:28:19.942Z,92185.72
2023-05-12T07:31:23.247Z,92172.94
2023-05-12T07:34:26.589Z,92176.53
2023-05-12T07:37:29.992Z,92167.91
2023-05-12T07:40:33.152Z,92166.81
2023-05-12T07:43:36.445Z,92172.66
2023-05-12T07:46:39.809Z,92168.72
2023-05-12T07:49:43.032Z,92166.53
2023-05-12T07:52:53.705Z,92161.88
2023-05-12T07:55:56.822Z,92146.63
2023-05-12T07:59:00.184Z,92156.53
2023-05-12T08:02:03.637Z,92147.47
2023-05-12T08:05:07.562Z,92147.03
2023-05-12T08:08:17.185Z,92144.25
2023-05-12T08:11:20.298Z,92132.47
2023-05-12T08:14:23.516Z,92126.03
2023-05-12T08:17:29.010Z,92131.91
2023-05-12T08:20:32.881Z,92127.63
2023-05-12T08:23:38.339Z,92132.19
2023-05-12T08:26:41.494Z,92118.22
2023-05-12T08:29:44.729Z,92121.84
2023-05-12T08:32:47.998Z,92110.91
2023-05-12T08:35:51.434Z,92107.19
2023-05-12T08:38:56.880Z,92107.19
2023-05-12T08:42:14.173Z,92092.06
2023-05-12T08:45:17.901Z,92099.81
2023-05-12T08:48:22.829Z,92093.03
2023-05-12T08:51:26.374Z,92095.00
2023-05-12T08:54:30.794Z,92093.41
2023-05-12T08:57:34.461Z,92086.09
2023-05-12T09:00:40.142Z,92084.81
2023-05-12T09:03:43.431Z,92076.34
2023-05-12T09:06:47.231Z,92080.22
2023-05-12T09:09:55.328Z,92084.31
2023-05-12T09:13:04.868Z,92082.47
2023-05-12T09:16:12.830Z,92079.78
2023-05-12T09:19:21.805Z,92082.53
2023-05-12T09:22:42.856Z,92079.13
2023-05-12T09:25:47.574Z,92073.63
2023-05-12T09:28:51.550Z,92068.38
2023-05-12T09:31:58.301Z,92063.22
2023-05-12T09:35:07.113Z,92067.91
2023-05-12T09:38:15.508Z,92070.56
2023-05-12T09:41:24.618Z,92064.41
2023-05-12T09:44:31.136Z,92058.50
2023-05-12T09:47:38.765Z,92055.63
2023-05-12T09:50:47.765Z,92053.53
2023-05-12T09:53:51.590Z,92050.88
2023-05-12T09:57:01.658Z,92051.19
2023-05-12T10:00:07.456Z,92042.72
2023-05-12T10:03:19.038Z,92047.91
2023-05-12T10:06:42.605Z,92042.28
2023-05-12T10:09:49.051Z,92042.91
2023-05-12T10:12:52.805Z,92044.28
2023-05-12T10:15:59.887Z,92039.72
2023-05-12T10:19:07.527Z,92040.16
2023-05-12T10:22:16.788Z,92045.16
2023-05-12T10:25:20.465Z,92039.50
2023-05-12T10:28:23.874Z,92028.72
2023-05-12T10:31:28.616Z,92033.28
2023-05-12T10:34:33.807Z,92027.00
2023-05-12T10:37:38.543Z,92036.13
2023-05-12T10:40:54.219Z,92026.38
2023-05-12T10:43:57.521Z,92022.00
2023-05-12T10:47:01.211Z,92010.00
2023-05-12T10:50:04.469Z,92019.47
2023-05-12T10:53:10.672Z,92017.03
2023-05-12T10:56:14.091Z,92020.31
2023-05-12T10:59:28.086Z,92020.84
2023-05-12T11:02:34.684Z,92018.47
2023-05-12T11:05:40.094Z,92021.00
2023-05-12T11:08:46.006Z,92026.19
2023-05-12T11:11:51.958Z,92030.81
2023-05-12T11:14:55.627Z,92028.84
2023-05-12T11:17:58.925Z,92019.59
2023-05-12T11:21:10.839Z,92018.16
2023-05-12T11:24:14.093Z,92020.03
2023-05-12T11:27:23.703Z,92015.00
2023-05-12T11:30:30.207Z,92012.19
2023-05-12T11:33:33.368Z,92006.09
2023-05-12T11:36:40.335Z,92014.69
2023-05-12T11:39:43.458Z,92016.16
2023-05-12T11:42:53.011Z,92014.97
2023-05-12T11:45:57.127Z,92011.19
2023-05-12T11:49:01.430Z,92009.34
2023-05-12T11:52:05.785Z,91999.63
2023-05-12T11:55:09.796Z,92000.47
2023-05-12T11:58:27.374Z,91992.28
2023-05-12T12:01:30.855Z,91994.53
2023-05-12T12:04:42.304Z,92001.22
2023-05-12T12:07:45.606Z,91995.28
2023-05-12T12:10:49.204Z,92004.16
2023-05-12T12:13:57.268Z,92004.22
2023-05-12T12:17:01.071Z,92008.31
2023-05-12T12:20:04.812Z,92007.38
2023-05-12T12:23:08.095Z,92007.75
2023-05-12T12:26:11.336Z,92013.53
2023-05-12T12:29:15.114Z,92011.84
2023-05-12T12:32:18.421Z,92015.38
2023-05-12T12:35:21.833Z,92024.91
2023-05-12T12:38:25.377Z,92020.75
2023-05-12T12:41:28.957Z,92023.56
2023-05-12T12:44:32.228Z,92036.22
2023-05-12T12:47:35.778Z,92044.78
2023-05-12T12:50:39.255Z,92040.41
2023-05-12T12:53:44.173Z,92038.16
2023-05-12T12:56:47.897Z,92035.97
2023-05-12T12:59:51.110Z,92045.47
2023-05-12T13:02:54.651Z,92051.13
2023-05-12T13:05:58.201Z,92064.59
2023-05-12T13:09:02.213Z,92055.50
2023-05-12T13:12:06.016Z,92057.13
2023-05-12T13:15:11.089Z,92057.47
2023-05-12T13:18:15.839Z,92056.81
2023-05-12T13:21:19.395Z,92050.19
2023-05-12T13:24:22.646Z,92055.25
2023-05-12T13:27:25.960Z,92055.06
2023-05-12T13:30:30.458Z,92045.75
2023-05-12T13:33:34.128Z,92052.97
2023-05-12T13:36:37.359Z,92051.88
2023-05-12T13:39:40.602Z,92053.56
2023-05-12T13:42:43.862Z,92056.38
2023-05-12T13:45:47.223Z,92061.00
2023-05-12T13:48:52.087Z,92065.59
2023-05-12T13:51:55.234Z,92063.63
2023-05-12T13:54:58.452Z,92054.91
2023-05-12T13:58:01.758Z,92052.56
2023-05-12T14:01:06.139Z,92044.78
2023-05-12T14:04:12.561Z,92038.75
2023-05-12T14:07:16.025Z,92044.94
2023-05-12T14:10:19.458Z,92040.19
2023-05-12T14:13:22.930Z,92040.78
2023-05-12T14:16:26.158Z,92039.44
2023-05-12T14:19:29.580Z,92035.28
2023-05-12T14:22:33.305Z,92037.88
2023-05-12T14:25:36.620Z,92038.09
2023-05-12T14:28:39.941Z,92039.03
2023-05-12T14:31:43.674Z,92030.03
2023-05-12T14:34:47.047Z,92021.63
2023-05-12T14:37:50.286Z,92022.97
2023-05-12T14:40:53.575Z,92016.97
2023-05-12T14:43:56.728Z,92014.09
2023-05-12T14:47:00.531Z,92005.34
2023-05-12T14:50:03.943Z,92005.97
2023-05-12T14:53:07.189Z,92005.25
2023-05-12T14:56:10.664Z,92003.84
2023-05-12T14:59:13.903Z,92001.75
2023-05-12T15:02:17.049Z,91993.88
2023-05-12T15:05:20.475Z,91990.59
2023-05-12T15:08:25.247Z,91988.03
2023-05-12T15:11:28.572Z,91997.84
2023-05-12T15:14:31.680Z,91994.06
2023-05-12T15:17:35.084Z,91996.31
2023-05-12T15:20:39.052Z,91998.97
2023-05-12T15:23:44.008Z,92009.47
2023-05-12T15:26:48.521Z,92013.44
2023-05-12T15:29:52.211Z,92006.47
2023-05-12T15:32:55.467Z,92010.00
2023-05-12T15:35:58.724Z,92009.06
2023-05-12T15:39:03.856Z,92002.50
2023-05-12T15:42:07.898Z,91992.50
2023-05-12T15:45:11.287Z,91982.53
2023-05-12T15:48:14.560Z,91970.72
2023-05-12T15:51:18.052Z,91973.34
2023-05-12T15:54:22.166Z,91969.94
2023-05-12T15:57:25.493Z,91965.97
2023-05-12T16:00:28.918Z,91967.41
2023-05-12T16:03:32.387Z,91964.19
2023-05-12T16:06:35.879Z,91957.31
2023-05-12T16:09:39.537Z,91961.50
2023-05-12T16:12:42.775Z,91953.25
2023-05-12T16:15:46.059Z,91945.66
2023-05-12T16:18:49.300Z,91941.97
2023-05-12T16:21:52.503Z,91942.78
2023-05-12T16:24:57.206Z,91942.19
2023-05-12T16:28:00.412Z,91936.38
2023-05-12T16:31:04.366Z,91930.53
2023-05-12T16:34:07.617Z,91926.25
2023-05-12T16:37:10.883Z,91925.94
2023-05-12T16:40:15.335Z,91925.06
2023-05-12T16:43:18.554Z,91927.44
2023-05-12T16:46:21.908Z,91922.41
2023-05-12T16:49:25.190Z,91909.59
2023-05-12T16:52:28.503Z,91902.81
2023-05-12T16:55:31.833Z,91896.00
2023-05-12T16:58:38.051Z,91890.47
2023-05-12T17:01:41.303Z,91882.84
2023-05-12T17:04:45.237Z,91877.19
2023-05-12T17:07:48.435Z,91879.63
2023-05-12T17:10:52.184Z,91872.75
2023-05-12T17:13:56.511Z,91872.25
2023-05-12T17:16:59.647Z,91877.59
2023-05-12T17:20:03.136Z,91862.59
2023-05-12T17:23:06.391Z,91866.50
2023-05-12T17:26:09.656Z,91865.25
2023-05-12T17:29:12.934Z,91862.75
2023-05-12T17:32:16.060Z,91857.06
2023-05-12T17:35:19.448Z,91864.41
2023-05-12T17:38:24.287Z,91854.81
2023-05-12T17:41:29.107Z,91860.22
2023-05-12T17:44:33.023Z,91851.41
2023-05-12T17:47:36.345Z,91839.00
2023-05-12T17:50:40.056Z,91844.75
2023-05-12T17:53:43.166Z,91842.34
2023-05-12T17:56:49.208Z,91839.31
2023-05-12T17:59:52.523Z,91830.38
2023-05-12T18:02:57.117Z,91830.03
2023-05-12T18:06:00.474Z,91832.25
2023-05-12T18:09:04.473Z,91816.22
2023-05-12T18:12:08.333Z,91817.00
2023-05-12T18:15:12.021Z,91817.06
2023-05-12T18:18:15.300Z,91808.69
2023-05-12T18:21:18.814Z,91800.34
2023-05-12T18:24:22.083Z,91793.97
2023-05-12T18:27:25.347Z,91783.63
2023-05-12T18:30:28.518Z,91775.78
2023-05-12T18:33:31.905Z,91762.75
2023-05-12T18:36:35.071Z,91770.00
2023-05-12T18:39:38.251Z,91764.16
2023-05-12T18:42:41.463Z,91762.13
2023-05-12T18:45:44.614Z,91759.94
2023-05-12T18:48:49.253Z,91760.41
2023-05-12T18:51:52.430Z,91753.88
2023-05-12T18:54:55.550Z,91760.34
2023-05-12T18:58:01.066Z,91749.91
2023-05-12T19:01:05.285Z,91755.13
2023-05-12T19:04:10.516Z,91736.84
2023-05-12T19:07:16.009Z,91731.56
2023-05-12T19:10:19.122Z,91717.94
2023-05-12T19:13:22.347Z,91712.09
2023-05-12T19:16:25.578Z,91706.19
2023-05-12T19:19:28.869Z,91707.13
2023-05-12T19:22:32.076Z,91712.81
2023-05-12T19:25:36.002Z,91706.75
2023-05-12T19:28:39.208Z,91718.38
2023-05-12T19:31:42.505Z,91707.19
2023-05-12T19:34:45.738Z,91704.56
2023-05-12T19:37:49.360Z,91702.03
2023-05-12T19:40:52.505Z,91700.16
2023-05-12T19:43:56.677Z,91713.34
2023-05-12T19:47:05.041Z,91703.63
2023-05-12T19:50:08.851Z,91690.69
2023-05-12T19:53:11.995Z,91684.88
2023-05-12T19:56:15.138Z,91679.66
2023-05-12T19:59:19.446Z,91685.47
2023-05-12T20:02:22.746Z,91700.41
2023-05-12T20:05:26.078Z,91705.56
2023-05-12T20:08:29.220Z,91710.75
2023-05-12T20:11:32.334Z,91704.97
2023-05-12T20:14:36.728Z,91698.47
2023-05-12T20:17:40.247Z,91695.19
2023-05-12T20:20:43.868Z,91691.88
2023-05-12T20:23:47.172Z,91680.75
2023-05-12T20:26:50.386Z,91683.41
2023-05-12T20:29:53.604Z,91675.63
2023-05-12T20:32:56.872Z,91678.25
2023-05-12T20:36:01.847Z,91667.22
2023-05-12T20:39:05.442Z,91663.31
2023-05-12T20:42:10.708Z,91660.00
2023-05-12T20:45:14.937Z,91669.69
2023-05-12T20:48:18.268Z,91671.63
2023-05-12T20:51:22.060Z,91661.81
2023-05-12T20:54:25.387Z,91640.88
2023-05-12T20:57:29.226Z,91640.00
2023-05-12T21:00:32.588Z,91628.13
2023-05-12T21:03:36.224Z,91626.03
2023-05-12T21:06:39.572Z,91624.56
2023-05-12T21:09:42.896Z,91623.13
2023-05-12T21:12:46.189Z,91621.78
2023-05-12T21:15:49.399Z,91627.53
2023-05-12T21:18:52.763Z,91628.81
2023-05-12T21:21:55.941Z,91613.09
2023-05-12T21:24:59.093Z,91599.31
2023-05-12T21:28:02.191Z,91581.59
2023-05-12T21:31:05.342Z,91572.28
2023-05-12T21:34:08.480Z,91575.94
2023-05-12T21:37:12.013Z,91574.47
2023-05-12T21:40:15.319Z,91592.66
2023-05-12T21:43:18.736Z,91603.03
2023-05-12T21:46:22.005Z,91590.41
2023-05-12T21:49:26.312Z,91603.06
2023-05-12T21:52:29.449Z,91596.19
2023-05-12T21:55:32.596Z,91600.50
2023-05-12T21:58:35.862Z,91607.28
2023-05-12T22:01:39.410Z,91609.09
2023-05-12T22:04:42.685Z,91610.91
2023-05-12T22:07:45.841Z,91614.06
2023-05-12T22:10:49.266Z,91603.00
2023-05-12T22:13:52.539Z,91586.31
2023-05-12T22:16:56.758Z,91571.06
2023-05-12T22:19:59.978Z,91577.22
2023-05-12T22:23:03.130Z,91579.66
2023-05-12T22:26:06.384Z,91580.25
2023-05-12T22:29:09.541Z,91580.78
2023-05-12T22:32:12.709Z,91578.19
2023-05-12T22:35:16.954Z,91585.03
2023-05-12T22:38:20.107Z,91571.75
2023-05-12T22:41:23.389Z,91559.88
2023-05-12T22:44:26.535Z,91549.22
2023-05-12T22:47:29.774Z,91561.78
2023-05-12T22:50:32.969Z,91553.50
2023-05-12T22:53:37.263Z,91556.81
2023-05-12T22:56:40.449Z,91559.88
2023-05-12T22:59:43.588Z,91576.88
2023-05-12T23:02:46.936Z,91574.00
2023-05-12T23:05:50.068Z,91566.66
2023-05-12T23:08:53.741Z,91559.81
2023-05-12T23:11:56.818Z,91556.06
2023-05-12T23:14:59.921Z,91547.28
2023-05-12T23:18:03.424Z,91557.09
2023-05-12T23:21:07.124Z,91544.25
2023-05-12T23:24:10.371Z,91541.81
2023-05-12T23:27:13.562Z,91525.31
2023-05-12T23:30:16.895Z,91521.78
2023-05-12T23:33:20.157Z,91513.53
2023-05-12T23:36:23.313Z,91521.41
2023-05-12T23:39:26.405Z,91512.53
2023-05-12T23:42:29.531Z,91500.16
2023-05-12T23:45:33.742Z,91498.78
2023-05-12T23:48:38.048Z,91490.56
2023-05-12T23:51:41.235Z,91490.19
2023-05-12T23:54:44.507Z,91478.66
2023-05-12T23:57:47.782Z,91474.81
